Kezdőlap
METAR-TAF:

METAR-TAF

Repülőterek :

Padova, Olaszország

földrajzi szélesség: 45-23-45N, földrajzi hosszúság: 11-50-53E, magasság: 13 m

Jelenlegi meteorológiai megfigyelések

A jelentés 11 órával és 30 perccel ezelõtt készült, 09:20 UTC
Déli szél 7 kt, dél-délkeleti és délnyugati között változik
Hőmérséklet 7°C
Páratartalom 93%
Légköri nyomás 994 hPa
Látótávolság: 6000 m
Szakadozott felhőzet 700 lábon

METAR: LIPU 230920Z 19007KT 160V220 6000 BKN007 07/06 Q0994 RERA

Idő: 21:50 (20:50 UTC)


TAF: hiányzik

Meteorológiai megfigyelések és előrejelzések több, mint 4000 repülőtéren (METAR és TAF jelentéseket).

A térképen piros és sárga pontok jelzik az elérhető meteorológiai állomásokat.

Mozgassa az egeret a pont fölött, hogy megjelenjen az állomás neve.

Azután kattintson az időjárási megfigyelések és előrejelzések megtekintéséhez.

A térkép megváltoztatása: kattintson a fekete keresztel jelölt zöld gombra ráközelítéshez, a vonallal jelölt zöld gombra távolításhoz, vagy a zöld nyilakra a szomszédos térképek eléréséhez.


METAR-TAF: